sensor_id;sensor_type;location;lat;lon;timestamp;pressure;altitude;pressure_sealevel;temperature;humidity
71145;BME280;58812;47.698;17.726;2023-03-05T00:01:28;100189.28;;;1.26;82.20
71145;BME280;58812;47.698;17.726;2023-03-05T00:03:55;100191.72;;;1.29;82.28
71145;BME280;58812;47.698;17.726;2023-03-05T00:06:23;100192.31;;;1.34;82.37
71145;BME280;58812;47.698;17.726;2023-03-05T00:08:49;100191.09;;;1.40;82.10
71145;BME280;58812;47.698;17.726;2023-03-05T00:11:16;100194.31;;;1.45;81.48
71145;BME280;58812;47.698;17.726;2023-03-05T00:13:41;100183.66;;;1.47;81.44
71145;BME280;58812;47.698;17.726;2023-03-05T00:16:10;100187.00;;;1.50;81.63
71145;BME280;58812;47.698;17.726;2023-03-05T00:18:37;100184.25;;;1.52;81.36
71145;BME280;58812;47.698;17.726;2023-03-05T00:21:03;100187.62;;;1.54;81.43
71145;BME280;58812;47.698;17.726;2023-03-05T00:23:29;100190.78;;;1.60;81.20
71145;BME280;58812;47.698;17.726;2023-03-05T00:25:55;100190.69;;;1.62;81.21
71145;BME280;58812;47.698;17.726;2023-03-05T00:28:20;100185.31;;;1.64;81.32
71145;BME280;58812;47.698;17.726;2023-03-05T00:30:46;100181.66;;;1.66;81.08
71145;BME280;58812;47.698;17.726;2023-03-05T00:33:12;100178.25;;;1.64;81.18
71145;BME280;58812;47.698;17.726;2023-03-05T00:35:41;100179.75;;;1.68;81.18
71145;BME280;58812;47.698;17.726;2023-03-05T00:38:07;100166.84;;;1.64;81.40
71145;BME280;58812;47.698;17.726;2023-03-05T00:40:40;100171.94;;;1.67;81.41
71145;BME280;58812;47.698;17.726;2023-03-05T00:43:06;100160.72;;;1.63;81.59
71145;BME280;58812;47.698;17.726;2023-03-05T00:45:32;100167.53;;;1.67;81.51
71145;BME280;58812;47.698;17.726;2023-03-05T00:47:58;100161.28;;;1.68;81.37
71145;BME280;58812;47.698;17.726;2023-03-05T00:50:24;100158.44;;;1.71;81.31
71145;BME280;58812;47.698;17.726;2023-03-05T00:52:49;100163.72;;;1.71;81.35
71145;BME280;58812;47.698;17.726;2023-03-05T00:55:15;100165.25;;;1.75;81.15
71145;BME280;58812;47.698;17.726;2023-03-05T00:57:40;100162.50;;;1.77;81.35
71145;BME280;58812;47.698;17.726;2023-03-05T01:00:06;100159.81;;;1.78;81.32
71145;BME280;58812;47.698;17.726;2023-03-05T01:02:32;100155.44;;;1.77;81.43
71145;BME280;58812;47.698;17.726;2023-03-05T01:04:58;100152.81;;;1.77;81.24
71145;BME280;58812;47.698;17.726;2023-03-05T01:07:23;100157.06;;;1.80;81.17
71145;BME280;58812;47.698;17.726;2023-03-05T01:09:48;100155.00;;;1.85;80.94
71145;BME280;58812;47.698;17.726;2023-03-05T01:12:14;100155.16;;;1.82;81.16
71145;BME280;58812;47.698;17.726;2023-03-05T01:14:39;100155.16;;;1.82;81.17
71145;BME280;58812;47.698;17.726;2023-03-05T01:17:05;100151.56;;;1.83;81.35
71145;BME280;58812;47.698;17.726;2023-03-05T01:19:30;100149.78;;;1.83;81.14
71145;BME280;58812;47.698;17.726;2023-03-05T01:21:56;100148.03;;;1.84;81.13
71145;BME280;58812;47.698;17.726;2023-03-05T01:24:21;100136.59;;;1.83;81.01
71145;BME280;58812;47.698;17.726;2023-03-05T01:26:47;100138.31;;;1.84;81.14
71145;BME280;58812;47.698;17.726;2023-03-05T01:29:13;100145.19;;;1.87;81.12
71145;BME280;58812;47.698;17.726;2023-03-05T01:31:39;100139.31;;;1.82;80.95
71145;BME280;58812;47.698;17.726;2023-03-05T01:34:05;100150.56;;;1.85;81.05
71145;BME280;58812;47.698;17.726;2023-03-05T01:36:30;100154.88;;;1.86;81.05
71145;BME280;58812;47.698;17.726;2023-03-05T01:38:56;100144.91;;;1.92;81.11
71145;BME280;58812;47.698;17.726;2023-03-05T01:41:22;100144.69;;;1.95;81.26
71145;BME280;58812;47.698;17.726;2023-03-05T01:43:48;100148.19;;;1.95;80.87
71145;BME280;58812;47.698;17.726;2023-03-05T01:46:27;100148.13;;;1.97;80.71
71145;BME280;58812;47.698;17.726;2023-03-05T01:48:57;100146.22;;;1.99;80.86
71145;BME280;58812;47.698;17.726;2023-03-05T01:51:29;100137.34;;;2.00;80.61
71145;BME280;58812;47.698;17.726;2023-03-05T01:53:57;100139.88;;;2.01;80.07
71145;BME280;58812;47.698;17.726;2023-03-05T01:56:25;100132.91;;;2.00;80.16
71145;BME280;58812;47.698;17.726;2023-03-05T01:58:53;100134.53;;;2.03;79.84
71145;BME280;58812;47.698;17.726;2023-03-05T02:01:22;100132.63;;;2.05;79.84
71145;BME280;58812;47.698;17.726;2023-03-05T02:03:47;100133.47;;;2.05;79.49
71145;BME280;58812;47.698;17.726;2023-03-05T02:06:13;100127.91;;;2.10;79.62
71145;BME280;58812;47.698;17.726;2023-03-05T02:08:38;100132.34;;;2.09;79.49
71145;BME280;58812;47.698;17.726;2023-03-05T02:11:04;100132.34;;;2.09;79.51
71145;BME280;58812;47.698;17.726;2023-03-05T02:13:34;100133.19;;;2.10;79.35
71145;BME280;58812;47.698;17.726;2023-03-05T02:16:02;100134.03;;;2.10;79.49
71145;BME280;58812;47.698;17.726;2023-03-05T02:18:28;100126.84;;;2.12;79.01
71145;BME280;58812;47.698;17.726;2023-03-05T02:23:29;100127.72;;;2.13;79.07
71145;BME280;58812;47.698;17.726;2023-03-05T02:25:56;100133.75;;;2.15;78.81
71145;BME280;58812;47.698;17.726;2023-03-05T02:30:47;100134.50;;;2.17;78.83
71145;BME280;58812;47.698;17.726;2023-03-05T02:33:14;100117.91;;;2.15;78.50
71145;BME280;58812;47.698;17.726;2023-03-05T02:35:40;100126.56;;;2.17;78.67
71145;BME280;58812;47.698;17.726;2023-03-05T02:38:08;100123.75;;;2.20;78.88
71145;BME280;58812;47.698;17.726;2023-03-05T02:40:34;100125.63;;;2.18;79.04
71145;BME280;58812;47.698;17.726;2023-03-05T02:42:59;100118.66;;;2.17;78.77
71145;BME280;58812;47.698;17.726;2023-03-05T02:45:25;100123.00;;;2.18;79.10
71145;BME280;58812;47.698;17.726;2023-03-05T02:47:50;100118.66;;;2.17;78.99
71145;BME280;58812;47.698;17.726;2023-03-05T02:50:16;100118.66;;;2.17;78.66
71145;BME280;58812;47.698;17.726;2023-03-05T02:52:41;100127.31;;;2.19;78.51
71145;BME280;58812;47.698;17.726;2023-03-05T02:55:07;100113.19;;;2.20;78.52
71145;BME280;58812;47.698;17.726;2023-03-05T02:57:32;100110.56;;;2.20;78.35
71145;BME280;58812;47.698;17.726;2023-03-05T02:59:58;100113.28;;;2.19;78.50
71145;BME280;58812;47.698;17.726;2023-03-05T03:02:23;100107.91;;;2.20;78.37
71145;BME280;58812;47.698;17.726;2023-03-05T03:04:49;100108.66;;;2.22;78.21
71145;BME280;58812;47.698;17.726;2023-03-05T03:07:15;100099.03;;;2.21;78.13
71145;BME280;58812;47.698;17.726;2023-03-05T03:09:41;100103.56;;;2.19;78.26
71145;BME280;58812;47.698;17.726;2023-03-05T03:12:08;100105.34;;;2.19;78.14
71145;BME280;58812;47.698;17.726;2023-03-05T03:14:35;100103.56;;;2.19;78.53
71145;BME280;58812;47.698;17.726;2023-03-05T03:17:06;100100.91;;;2.19;78.61
71145;BME280;58812;47.698;17.726;2023-03-05T03:19:31;100103.66;;;2.18;78.41
71145;BME280;58812;47.698;17.726;2023-03-05T03:21:57;100102.91;;;2.16;78.79
71145;BME280;58812;47.698;17.726;2023-03-05T03:24:22;100094.16;;;2.15;78.79
71145;BME280;58812;47.698;17.726;2023-03-05T03:26:48;100097.75;;;2.14;78.91
71145;BME280;58812;47.698;17.726;2023-03-05T03:29:14;100097.75;;;2.14;79.13
71145;BME280;58812;47.698;17.726;2023-03-05T03:31:40;100106.78;;;2.10;79.18
71145;BME280;58812;47.698;17.726;2023-03-05T03:34:06;100095.28;;;2.11;79.13
71145;BME280;58812;47.698;17.726;2023-03-05T03:36:33;100091.78;;;2.10;78.98
71145;BME280;58812;47.698;17.726;2023-03-05T03:38:58;100087.34;;;2.11;78.96
71145;BME280;58812;47.698;17.726;2023-03-05T03:41:24;100084.81;;;2.09;79.04
71145;BME280;58812;47.698;17.726;2023-03-05T03:43:49;100081.22;;;2.10;78.86
71145;BME280;58812;47.698;17.726;2023-03-05T03:46:15;100077.75;;;2.10;78.68
71145;BME280;58812;47.698;17.726;2023-03-05T03:48:40;100085.47;;;2.13;78.81
71145;BME280;58812;47.698;17.726;2023-03-05T03:51:06;100085.66;;;2.10;78.57
71145;BME280;58812;47.698;17.726;2023-03-05T03:53:32;100083.75;;;2.12;78.87
71145;BME280;58812;47.698;17.726;2023-03-05T03:55:58;100092.47;;;2.14;78.55
71145;BME280;58812;47.698;17.726;2023-03-05T03:58:24;100090.75;;;2.13;78.23
71145;BME280;58812;47.698;17.726;2023-03-05T04:00:50;100088.19;;;2.11;78.39
71145;BME280;58812;47.698;17.726;2023-03-05T04:03:15;100097.75;;;2.14;78.26
71145;BME280;58812;47.698;17.726;2023-03-05T04:05:40;100095.94;;;2.14;78.39
71145;BME280;58812;47.698;17.726;2023-03-05T04:08:06;100080.94;;;2.15;78.54
71145;BME280;58812;47.698;17.726;2023-03-05T04:10:37;100082.53;;;2.18;78.44
71145;BME280;58812;47.698;17.726;2023-03-05T04:13:02;100076.41;;;2.17;78.54
71145;BME280;58812;47.698;17.726;2023-03-05T04:15:28;100077.34;;;2.16;78.50
71145;BME280;58812;47.698;17.726;2023-03-05T04:17:53;100081.69;;;2.17;78.09
71145;BME280;58812;47.698;17.726;2023-03-05T04:20:19;100073.59;;;2.20;77.96
71145;BME280;58812;47.698;17.726;2023-03-05T04:22:44;100077.91;;;2.21;77.86
71145;BME280;58812;47.698;17.726;2023-03-05T04:25:10;100072.62;;;2.21;77.47
71145;BME280;58812;47.698;17.726;2023-03-05T04:27:35;100072.62;;;2.21;77.52
71145;BME280;58812;47.698;17.726;2023-03-05T04:30:03;100066.41;;;2.22;77.77
71145;BME280;58812;47.698;17.726;2023-03-05T04:32:28;100070.72;;;2.23;77.50
71145;BME280;58812;47.698;17.726;2023-03-05T04:34:57;100060.28;;;2.22;77.16
71145;BME280;58812;47.698;17.726;2023-03-05T04:37:24;100066.09;;;2.27;77.02
71145;BME280;58812;47.698;17.726;2023-03-05T04:39:50;100071.28;;;2.28;76.75
71145;BME280;58812;47.698;17.726;2023-03-05T04:42:15;100057.22;;;2.28;76.73
71145;BME280;58812;47.698;17.726;2023-03-05T04:44:41;100070.34;;;2.29;77.13
71145;BME280;58812;47.698;17.726;2023-03-05T04:47:06;100061.28;;;2.33;76.74
71145;BME280;58812;47.698;17.726;2023-03-05T04:49:32;100058.53;;;2.35;76.92
71145;BME280;58812;47.698;17.726;2023-03-05T04:51:57;100057.50;;;2.37;76.89
71145;BME280;58812;47.698;17.726;2023-03-05T04:54:23;100065.41;;;2.37;76.76
71145;BME280;58812;47.698;17.726;2023-03-05T04:56:49;100060.87;;;2.39;76.69
71145;BME280;58812;47.698;17.726;2023-03-05T04:59:14;100061.84;;;2.38;76.66
71145;BME280;58812;47.698;17.726;2023-03-05T05:01:40;100061.63;;;2.41;76.52
71145;BME280;58812;47.698;17.726;2023-03-05T05:04:05;100066.91;;;2.41;76.66
71145;BME280;58812;47.698;17.726;2023-03-05T05:06:30;100066.78;;;2.43;76.92
71145;BME280;58812;47.698;17.726;2023-03-05T05:08:56;100060.47;;;2.46;76.94
71145;BME280;58812;47.698;17.726;2023-03-05T05:11:21;100054.34;;;2.45;76.64
71145;BME280;58812;47.698;17.726;2023-03-05T05:13:47;100061.22;;;2.48;76.84
71145;BME280;58812;47.698;17.726;2023-03-05T05:16:12;100060.25;;;2.49;76.52
71145;BME280;58812;47.698;17.726;2023-03-05T05:18:38;100063.66;;;2.51;76.91
71145;BME280;58812;47.698;17.726;2023-03-05T05:21:11;100059.53;;;2.47;76.79
71145;BME280;58812;47.698;17.726;2023-03-05T05:23:37;100076.03;;;2.50;76.87
71145;BME280;58812;47.698;17.726;2023-03-05T05:26:04;100072.56;;;2.50;77.00
71145;BME280;58812;47.698;17.726;2023-03-05T05:28:30;100071.59;;;2.51;77.08
71145;BME280;58812;47.698;17.726;2023-03-05T05:30:56;100066.41;;;2.49;77.18
71145;BME280;58812;47.698;17.726;2023-03-05T05:33:22;100067.34;;;2.48;77.29
71145;BME280;58812;47.698;17.726;2023-03-05T05:35:47;100065.53;;;2.49;77.50
71145;BME280;58812;47.698;17.726;2023-03-05T05:38:13;100067.03;;;2.53;77.61
71145;BME280;58812;47.698;17.726;2023-03-05T05:40:39;100063.66;;;2.51;77.48
71145;BME280;58812;47.698;17.726;2023-03-05T05:43:05;100074.03;;;2.54;77.33
71145;BME280;58812;47.698;17.726;2023-03-05T05:45:31;100070.66;;;2.52;77.63
71145;BME280;58812;47.698;17.726;2023-03-05T05:47:56;100077.50;;;2.54;77.70
71145;BME280;58812;47.698;17.726;2023-03-05T05:50:22;100074.97;;;2.53;77.88
71145;BME280;58812;47.698;17.726;2023-03-05T05:52:50;100076.66;;;2.54;77.80
71145;BME280;58812;47.698;17.726;2023-03-05T05:55:15;100081.88;;;2.55;77.89
71145;BME280;58812;47.698;17.726;2023-03-05T05:57:41;100077.72;;;2.51;78.13
71145;BME280;58812;47.698;17.726;2023-03-05T06:00:09;100080.25;;;2.53;78.42
71145;BME280;58812;47.698;17.726;2023-03-05T06:02:39;100076.78;;;2.52;78.19
71145;BME280;58812;47.698;17.726;2023-03-05T06:05:07;100078.28;;;2.56;77.83
71145;BME280;58812;47.698;17.726;2023-03-05T06:07:34;100081.88;;;2.55;78.29
71145;BME280;58812;47.698;17.726;2023-03-05T06:10:00;100079.12;;;2.57;78.14
71145;BME280;58812;47.698;17.726;2023-03-05T06:12:26;100076.25;;;2.60;77.84
71145;BME280;58812;47.698;17.726;2023-03-05T06:14:51;100084.84;;;2.63;77.79
71145;BME280;58812;47.698;17.726;2023-03-05T06:17:18;100082.09;;;2.65;77.77
71145;BME280;58812;47.698;17.726;2023-03-05T06:19:44;100082.09;;;2.65;77.56
71145;BME280;58812;47.698;17.726;2023-03-05T06:22:09;100077.34;;;2.70;77.36
71145;BME280;58812;47.698;17.726;2023-03-05T06:24:36;100080.75;;;2.72;76.99
71145;BME280;58812;47.698;17.726;2023-03-05T06:27:02;100084.22;;;2.73;77.15
71145;BME280;58812;47.698;17.726;2023-03-05T06:29:28;100081.69;;;2.71;76.97
71145;BME280;58812;47.698;17.726;2023-03-05T06:31:53;100090.38;;;2.73;77.10
71145;BME280;58812;47.698;17.726;2023-03-05T06:34:19;100086.78;;;2.74;76.82
71145;BME280;58812;47.698;17.726;2023-03-05T06:36:44;100084.87;;;2.76;76.87
71145;BME280;58812;47.698;17.726;2023-03-05T06:39:10;100087.53;;;2.76;77.30
71145;BME280;58812;47.698;17.726;2023-03-05T06:41:35;100096.12;;;2.80;76.84
71145;BME280;58812;47.698;17.726;2023-03-05T06:44:01;100093.38;;;2.81;76.96
71145;BME280;58812;47.698;17.726;2023-03-05T06:46:33;100078.34;;;2.82;77.18
71145;BME280;58812;47.698;17.726;2023-03-05T06:49:00;100086.16;;;2.83;76.66
71145;BME280;58812;47.698;17.726;2023-03-05T06:51:29;100085.97;;;2.86;77.20
71145;BME280;58812;47.698;17.726;2023-03-05T06:53:57;100085.97;;;2.86;76.85
71145;BME280;58812;47.698;17.726;2023-03-05T06:56:23;100089.91;;;2.93;76.97
71145;BME280;58812;47.698;17.726;2023-03-05T06:58:51;100088.00;;;2.95;76.71
71145;BME280;58812;47.698;17.726;2023-03-05T07:01:18;100080.06;;;2.95;76.69
71145;BME280;58812;47.698;17.726;2023-03-05T07:03:49;100080.50;;;3.02;76.71
71145;BME280;58812;47.698;17.726;2023-03-05T07:06:14;100090.03;;;3.05;76.38
71145;BME280;58812;47.698;17.726;2023-03-05T07:08:40;100084.34;;;3.11;76.25
71145;BME280;58812;47.698;17.726;2023-03-05T07:11:19;100077.53;;;3.07;76.00
71145;BME280;58812;47.698;17.726;2023-03-05T07:13:45;100074.59;;;3.11;76.04
71145;BME280;58812;47.698;17.726;2023-03-05T07:16:29;100075.25;;;3.15;76.47
71145;BME280;58812;47.698;17.726;2023-03-05T07:18:56;100075.56;;;3.23;76.37
71145;BME280;58812;47.698;17.726;2023-03-05T07:21:25;100080.13;;;3.21;75.87
71145;BME280;58812;47.698;17.726;2023-03-05T07:23:57;100076.72;;;3.19;75.78
71145;BME280;58812;47.698;17.726;2023-03-05T07:26:22;100080.13;;;3.21;75.85
71145;BME280;58812;47.698;17.726;2023-03-05T07:28:48;100073.88;;;3.22;75.67
71145;BME280;58812;47.698;17.726;2023-03-05T07:31:17;100073.66;;;3.25;75.70
71145;BME280;58812;47.698;17.726;2023-03-05T07:33:44;100070.06;;;3.26;75.64
71145;BME280;58812;47.698;17.726;2023-03-05T07:36:10;100075.88;;;3.31;75.62
71145;BME280;58812;47.698;17.726;2023-03-05T07:38:36;100065.09;;;3.34;75.33
71145;BME280;58812;47.698;17.726;2023-03-05T07:41:04;100059.16;;;3.43;75.36
71145;BME280;58812;47.698;17.726;2023-03-05T07:43:30;100061.06;;;3.41;75.11
71145;BME280;58812;47.698;17.726;2023-03-05T07:45:55;100063.72;;;3.41;75.39
71145;BME280;58812;47.698;17.726;2023-03-05T07:48:21;100062.12;;;3.52;74.92
71145;BME280;58812;47.698;17.726;2023-03-05T07:50:47;100051.75;;;3.48;74.30
71145;BME280;58812;47.698;17.726;2023-03-05T07:53:14;100059.91;;;3.58;74.28
71145;BME280;58812;47.698;17.726;2023-03-05T07:55:43;100066.56;;;3.64;73.85
71145;BME280;58812;47.698;17.726;2023-03-05T07:58:09;100062.31;;;3.61;73.76
71145;BME280;58812;47.698;17.726;2023-03-05T08:00:35;100074.28;;;3.67;73.73
71145;BME280;58812;47.698;17.726;2023-03-05T08:03:00;100071.97;;;3.75;73.70
71145;BME280;58812;47.698;17.726;2023-03-05T08:05:26;100065.91;;;3.73;73.25
71145;BME280;58812;47.698;17.726;2023-03-05T08:07:52;100062.75;;;3.68;72.82
71145;BME280;58812;47.698;17.726;2023-03-05T08:10:17;100060.81;;;3.83;73.28
71145;BME280;58812;47.698;17.726;2023-03-05T08:12:43;100070.34;;;3.85;72.63
71145;BME280;58812;47.698;17.726;2023-03-05T08:15:08;100062.19;;;3.88;72.27
71145;BME280;58812;47.698;17.726;2023-03-05T08:17:34;100061.13;;;3.78;71.93
71145;BME280;58812;47.698;17.726;2023-03-05T08:19:59;100056.16;;;3.86;72.59
71145;BME280;58812;47.698;17.726;2023-03-05T08:22:32;100053.94;;;3.93;72.31
71145;BME280;58812;47.698;17.726;2023-03-05T08:24:58;100050.19;;;3.95;72.26
71145;BME280;58812;47.698;17.726;2023-03-05T08:27:24;100052.97;;;3.94;71.42
71145;BME280;58812;47.698;17.726;2023-03-05T08:29:49;100044.91;;;3.95;71.69
71145;BME280;58812;47.698;17.726;2023-03-05T08:32:15;100041.50;;;4.06;71.43
71145;BME280;58812;47.698;17.726;2023-03-05T08:34:41;100050.41;;;4.05;71.44
71145;BME280;58812;47.698;17.726;2023-03-05T08:37:06;100044.25;;;4.05;71.79
71145;BME280;58812;47.698;17.726;2023-03-05T08:39:33;100048.88;;;4.14;71.28
71145;BME280;58812;47.698;17.726;2023-03-05T08:41:59;100043.38;;;4.17;70.85
71145;BME280;58812;47.698;17.726;2023-03-05T08:44:24;100053.97;;;4.17;71.07
71145;BME280;58812;47.698;17.726;2023-03-05T08:46:50;100052.34;;;4.27;70.87
71145;BME280;58812;47.698;17.726;2023-03-05T08:49:15;100055.28;;;4.35;70.80
71145;BME280;58812;47.698;17.726;2023-03-05T08:51:41;100053.06;;;4.29;69.75
71145;BME280;58812;47.698;17.726;2023-03-05T08:54:06;100055.78;;;4.40;70.15
71145;BME280;58812;47.698;17.726;2023-03-05T08:56:35;100044.50;;;4.49;69.71
71145;BME280;58812;47.698;17.726;2023-03-05T08:59:02;100045.75;;;4.57;69.89
71145;BME280;58812;47.698;17.726;2023-03-05T09:01:28;100048.81;;;4.50;69.43
71145;BME280;58812;47.698;17.726;2023-03-05T09:03:59;100038.00;;;4.53;69.81
71145;BME280;58812;47.698;17.726;2023-03-05T09:06:25;100038.19;;;4.63;69.24
71145;BME280;58812;47.698;17.726;2023-03-05T09:08:51;100041.59;;;4.76;69.00
71145;BME280;58812;47.698;17.726;2023-03-05T09:11:16;100044.69;;;4.94;68.13
71145;BME280;58812;47.698;17.726;2023-03-05T09:13:42;100039.53;;;5.15;68.41
71145;BME280;58812;47.698;17.726;2023-03-05T09:16:12;100034.38;;;5.25;67.75
71145;BME280;58812;47.698;17.726;2023-03-05T09:18:37;100039.94;;;5.44;66.59
71145;BME280;58812;47.698;17.726;2023-03-05T09:21:10;100024.25;;;5.30;66.61
71145;BME280;58812;47.698;17.726;2023-03-05T09:23:36;100037.06;;;5.47;66.09
71145;BME280;58812;47.698;17.726;2023-03-05T09:26:04;100032.72;;;5.57;65.36
71145;BME280;58812;47.698;17.726;2023-03-05T09:28:30;100034.16;;;5.73;64.96
71145;BME280;58812;47.698;17.726;2023-03-05T09:30:56;100035.34;;;5.80;64.16
71145;BME280;58812;47.698;17.726;2023-03-05T09:33:21;100028.16;;;5.93;63.74
71145;BME280;58812;47.698;17.726;2023-03-05T09:35:47;100025.56;;;6.14;63.21
71145;BME280;58812;47.698;17.726;2023-03-05T09:38:13;100032.34;;;6.18;62.13
71145;BME280;58812;47.698;17.726;2023-03-05T09:40:58;100032.34;;;6.18;62.52
71145;BME280;58812;47.698;17.726;2023-03-05T09:43:53;100027.59;;;6.22;61.43
71145;BME280;58812;47.698;17.726;2023-03-05T09:46:55;100024.16;;;6.42;61.76
71145;BME280;58812;47.698;17.726;2023-03-05T09:52:02;100030.72;;;6.27;60.56
71145;BME280;58812;47.698;17.726;2023-03-05T09:54:52;100027.13;;;6.16;61.24
71145;BME280;58812;47.698;17.726;2023-03-05T09:57:31;100019.66;;;6.10;61.54
71145;BME280;58812;47.698;17.726;2023-03-05T10:00:02;100023.72;;;6.26;60.44
71145;BME280;58812;47.698;17.726;2023-03-05T10:02:35;100014.41;;;6.31;60.36
71145;BME280;58812;47.698;17.726;2023-03-05T10:05:11;100019.63;;;6.22;60.93
71145;BME280;58812;47.698;17.726;2023-03-05T10:07:43;100005.94;;;6.37;61.01
71145;BME280;58812;47.698;17.726;2023-03-05T10:10:35;99999.00;;;6.46;60.80
71145;BME280;58812;47.698;17.726;2023-03-05T10:13:42;100003.06;;;6.29;61.15
71145;BME280;58812;47.698;17.726;2023-03-05T10:19:08;100000.59;;;6.69;59.46
71145;BME280;58812;47.698;17.726;2023-03-05T10:21:55;99990.22;;;7.08;58.49
71145;BME280;58812;47.698;17.726;2023-03-05T10:30:34;99986.41;;;6.59;57.55
71145;BME280;58812;47.698;17.726;2023-03-05T10:46:20;99988.59;;;6.75;55.86
71145;BME280;58812;47.698;17.726;2023-03-05T10:48:53;99972.28;;;7.10;55.24
71145;BME280;58812;47.698;17.726;2023-03-05T10:51:37;99983.53;;;6.93;54.39
71145;BME280;58812;47.698;17.726;2023-03-05T10:54:28;99974.84;;;7.12;53.97
71145;BME280;58812;47.698;17.726;2023-03-05T10:59:29;99971.78;;;6.54;54.92
71145;BME280;58812;47.698;17.726;2023-03-05T11:02:05;99974.78;;;6.60;55.25
71145;BME280;58812;47.698;17.726;2023-03-05T11:04:35;99962.91;;;6.64;55.64
71145;BME280;58812;47.698;17.726;2023-03-05T11:07:27;99970.25;;;6.72;55.25
71145;BME280;58812;47.698;17.726;2023-03-05T11:10:00;99958.25;;;6.78;54.69
71145;BME280;58812;47.698;17.726;2023-03-05T11:12:28;99959.41;;;6.85;54.93
71145;BME280;58812;47.698;17.726;2023-03-05T11:17:41;99965.38;;;6.77;53.33
71145;BME280;58812;47.698;17.726;2023-03-05T11:25:26;99939.47;;;6.79;54.55
71145;BME280;58812;47.698;17.726;2023-03-05T11:27:57;99936.72;;;7.11;53.46
71145;BME280;58812;47.698;17.726;2023-03-05T11:30:25;99933.56;;;7.17;53.54
71145;BME280;58812;47.698;17.726;2023-03-05T11:33:09;99932.81;;;7.15;53.76
71145;BME280;58812;47.698;17.726;2023-03-05T11:35:37;99926.88;;;7.02;53.43
71145;BME280;58812;47.698;17.726;2023-03-05T11:38:05;99930.50;;;7.01;53.71
71145;BME280;58812;47.698;17.726;2023-03-05T11:40:33;99922.91;;;6.96;53.29
71145;BME280;58812;47.698;17.726;2023-03-05T11:43:02;99909.31;;;6.90;53.90
71145;BME280;58812;47.698;17.726;2023-03-05T11:45:30;99910.75;;;7.25;52.53
71145;BME280;58812;47.698;17.726;2023-03-05T11:48:11;99912.13;;;7.29;52.54
71145;BME280;58812;47.698;17.726;2023-03-05T11:50:42;99905.38;;;7.55;52.34
71145;BME280;58812;47.698;17.726;2023-03-05T11:53:18;99901.28;;;7.51;52.36
71145;BME280;58812;47.698;17.726;2023-03-05T12:00:58;99887.50;;;6.75;53.36
71145;BME280;58812;47.698;17.726;2023-03-05T12:03:32;99880.56;;;6.84;53.65
71145;BME280;58812;47.698;17.726;2023-03-05T12:08:56;99878.34;;;6.89;52.91
71145;BME280;58812;47.698;17.726;2023-03-05T12:11:28;99889.44;;;6.94;52.83
71145;BME280;58812;47.698;17.726;2023-03-05T12:14:24;99884.88;;;6.54;53.96
71145;BME280;58812;47.698;17.726;2023-03-05T12:17:30;99874.88;;;6.98;53.89
71145;BME280;58812;47.698;17.726;2023-03-05T12:22:36;99864.44;;;7.06;53.24
71145;BME280;58812;47.698;17.726;2023-03-05T12:27:50;99859.91;;;7.47;51.53
71145;BME280;58812;47.698;17.726;2023-03-05T12:33:35;99857.06;;;7.89;50.36
71145;BME280;58812;47.698;17.726;2023-03-05T12:36:31;99848.16;;;7.49;50.51
71145;BME280;58812;47.698;17.726;2023-03-05T12:38:57;99847.19;;;7.60;50.45
71145;BME280;58812;47.698;17.726;2023-03-05T12:44:18;99847.50;;;7.96;49.85
71145;BME280;58812;47.698;17.726;2023-03-05T12:47:13;99838.94;;;7.92;48.98
71145;BME280;58812;47.698;17.726;2023-03-05T12:49:38;99835.44;;;8.01;49.62
71145;BME280;58812;47.698;17.726;2023-03-05T12:52:17;99826.59;;;7.82;49.93
71145;BME280;58812;47.698;17.726;2023-03-05T12:54:56;99817.78;;;8.00;50.15
71145;BME280;58812;47.698;17.726;2023-03-05T12:57:26;99826.19;;;7.67;50.12
71145;BME280;58812;47.698;17.726;2023-03-05T13:00:17;99822.81;;;8.13;48.96
71145;BME280;58812;47.698;17.726;2023-03-05T13:02:50;99821.50;;;8.66;47.64
71145;BME280;58812;47.698;17.726;2023-03-05T13:07:46;99808.06;;;8.38;47.50
71145;BME280;58812;47.698;17.726;2023-03-05T13:10:25;99818.59;;;8.40;47.27
71145;BME280;58812;47.698;17.726;2023-03-05T13:12:54;99809.91;;;7.80;50.71
71145;BME280;58812;47.698;17.726;2023-03-05T13:15:23;99813.41;;;8.09;50.66
71145;BME280;58812;47.698;17.726;2023-03-05T13:17:56;99810.34;;;7.85;51.64
71145;BME280;58812;47.698;17.726;2023-03-05T13:25:38;99811.16;;;7.75;52.68
71145;BME280;58812;47.698;17.726;2023-03-05T13:28:09;99799.09;;;7.52;53.59
71145;BME280;58812;47.698;17.726;2023-03-05T13:30:35;99800.00;;;7.12;55.08
71145;BME280;58812;47.698;17.726;2023-03-05T13:33:03;99801.78;;;7.02;54.83
71145;BME280;58812;47.698;17.726;2023-03-05T13:35:32;99804.78;;;7.18;54.91
71145;BME280;58812;47.698;17.726;2023-03-05T13:37:58;99804.09;;;6.86;55.13
71145;BME280;58812;47.698;17.726;2023-03-05T13:40:29;99813.66;;;6.98;55.12
71145;BME280;58812;47.698;17.726;2023-03-05T13:43:08;99810.19;;;6.67;55.64
71145;BME280;58812;47.698;17.726;2023-03-05T13:45:36;99809.72;;;6.83;55.42
71145;BME280;58812;47.698;17.726;2023-03-05T13:48:05;99807.22;;;6.91;55.03
71145;BME280;58812;47.698;17.726;2023-03-05T13:50:39;99814.12;;;6.73;54.93
71145;BME280;58812;47.698;17.726;2023-03-05T13:53:28;99812.63;;;6.49;55.89
71145;BME280;58812;47.698;17.726;2023-03-05T13:56:03;99815.66;;;6.65;56.06
71145;BME280;58812;47.698;17.726;2023-03-05T14:01:41;99808.81;;;6.42;56.08
71145;BME280;58812;47.698;17.726;2023-03-05T14:04:16;99820.53;;;6.60;55.62
71145;BME280;58812;47.698;17.726;2023-03-05T14:07:03;99807.00;;;6.73;55.38
71145;BME280;58812;47.698;17.726;2023-03-05T14:09:42;99815.47;;;6.88;54.59
71145;BME280;58812;47.698;17.726;2023-03-05T14:14:58;99805.88;;;6.45;55.33